sensor_id;sensor_type;location;lat;lon;timestamp;P1;durP1;ratioP1;P2;durP2;ratioP2
37983;SDS011;64625;50.882;4.376;2022-11-24T00:02:10;24.85;;;4.63;;
37983;SDS011;64625;50.882;4.376;2022-11-24T00:04:35;22.23;;;4.65;;
37983;SDS011;64625;50.882;4.376;2022-11-24T00:07:01;26.67;;;4.53;;
37983;SDS011;64625;50.882;4.376;2022-11-24T00:09:28;26.40;;;4.50;;
37983;SDS011;64625;50.882;4.376;2022-11-24T00:11:54;21.08;;;3.75;;
37983;SDS011;64625;50.882;4.376;2022-11-24T00:14:19;14.40;;;3.78;;
37983;SDS011;64625;50.882;4.376;2022-11-24T00:16:45;33.22;;;8.70;;
37983;SDS011;64625;50.882;4.376;2022-11-24T00:19:11;30.50;;;4.97;;
37983;SDS011;64625;50.882;4.376;2022-11-24T00:21:37;38.20;;;6.07;;
37983;SDS011;64625;50.882;4.376;2022-11-24T00:24:03;27.00;;;4.90;;
37983;SDS011;64625;50.882;4.376;2022-11-24T00:26:31;19.80;;;4.22;;
37983;SDS011;64625;50.882;4.376;2022-11-24T00:29:00;22.35;;;3.85;;
37983;SDS011;64625;50.882;4.376;2022-11-24T00:31:30;24.45;;;6.15;;
37983;SDS011;64625;50.882;4.376;2022-11-24T00:34:01;25.23;;;4.43;;
37983;SDS011;64625;50.882;4.376;2022-11-24T00:38:59;33.33;;;4.35;;
37983;SDS011;64625;50.882;4.376;2022-11-24T00:41:28;22.27;;;4.00;;
37983;SDS011;64625;50.882;4.376;2022-11-24T00:43:55;40.53;;;7.15;;
37983;SDS011;64625;50.882;4.376;2022-11-24T00:46:21;25.08;;;4.45;;
37983;SDS011;64625;50.882;4.376;2022-11-24T00:48:49;22.58;;;6.55;;
37983;SDS011;64625;50.882;4.376;2022-11-24T00:51:16;32.60;;;5.50;;
37983;SDS011;64625;50.882;4.376;2022-11-24T00:53:45;31.15;;;4.30;;
37983;SDS011;64625;50.882;4.376;2022-11-24T00:56:11;32.70;;;6.32;;
37983;SDS011;64625;50.882;4.376;2022-11-24T00:58:37;24.67;;;4.72;;
37983;SDS011;64625;50.882;4.376;2022-11-24T01:01:04;21.48;;;4.28;;
37983;SDS011;64625;50.882;4.376;2022-11-24T01:03:57;20.90;;;5.63;;
37983;SDS011;64625;50.882;4.376;2022-11-24T01:06:25;31.02;;;5.15;;
37983;SDS011;64625;50.882;4.376;2022-11-24T01:08:52;44.25;;;6.47;;
37983;SDS011;64625;50.882;4.376;2022-11-24T01:11:22;30.08;;;5.53;;
37983;SDS011;64625;50.882;4.376;2022-11-24T01:13:55;38.95;;;4.57;;
37983;SDS011;64625;50.882;4.376;2022-11-24T01:16:30;31.85;;;5.28;;
37983;SDS011;64625;50.882;4.376;2022-11-24T01:18:57;39.83;;;6.65;;
37983;SDS011;64625;50.882;4.376;2022-11-24T01:21:27;42.95;;;6.20;;
37983;SDS011;64625;50.882;4.376;2022-11-24T01:23:53;29.95;;;4.78;;
37983;SDS011;64625;50.882;4.376;2022-11-24T01:26:20;43.10;;;8.55;;
37983;SDS011;64625;50.882;4.376;2022-11-24T01:28:46;26.02;;;5.68;;
37983;SDS011;64625;50.882;4.376;2022-11-24T01:31:16;35.45;;;6.68;;
37983;SDS011;64625;50.882;4.376;2022-11-24T01:33:42;29.95;;;5.75;;
37983;SDS011;64625;50.882;4.376;2022-11-24T01:36:08;42.60;;;6.35;;
37983;SDS011;64625;50.882;4.376;2022-11-24T01:38:33;34.88;;;7.15;;
37983;SDS011;64625;50.882;4.376;2022-11-24T01:41:04;32.63;;;4.82;;
37983;SDS011;64625;50.882;4.376;2022-11-24T01:43:34;34.05;;;5.53;;
37983;SDS011;64625;50.882;4.376;2022-11-24T01:46:43;59.17;;;9.73;;
37983;SDS011;64625;50.882;4.376;2022-11-24T01:51:40;42.95;;;6.85;;
37983;SDS011;64625;50.882;4.376;2022-11-24T01:55:02;37.25;;;5.40;;
37983;SDS011;64625;50.882;4.376;2022-11-24T01:57:23;46.78;;;8.38;;
37983;SDS011;64625;50.882;4.376;2022-11-24T02:00:04;38.50;;;5.80;;
37983;SDS011;64625;50.882;4.376;2022-11-24T02:02:32;32.75;;;7.25;;
37983;SDS011;64625;50.882;4.376;2022-11-24T02:04:58;33.60;;;5.85;;
37983;SDS011;64625;50.882;4.376;2022-11-24T02:07:29;33.38;;;6.32;;
37983;SDS011;64625;50.882;4.376;2022-11-24T02:10:03;40.92;;;6.32;;
37983;SDS011;64625;50.882;4.376;2022-11-24T02:12:37;46.75;;;6.55;;
37983;SDS011;64625;50.882;4.376;2022-11-24T02:15:07;40.88;;;6.07;;
37983;SDS011;64625;50.882;4.376;2022-11-24T02:17:34;44.72;;;6.88;;
37983;SDS011;64625;50.882;4.376;2022-11-24T02:20:03;33.42;;;7.55;;
37983;SDS011;64625;50.882;4.376;2022-11-24T02:25:27;30.63;;;7.10;;
37983;SDS011;64625;50.882;4.376;2022-11-24T02:28:07;39.67;;;5.70;;
37983;SDS011;64625;50.882;4.376;2022-11-24T02:30:37;38.67;;;5.68;;
37983;SDS011;64625;50.882;4.376;2022-11-24T02:33:04;35.55;;;5.97;;
37983;SDS011;64625;50.882;4.376;2022-11-24T02:35:30;50.38;;;7.03;;
37983;SDS011;64625;50.882;4.376;2022-11-24T02:37:56;37.28;;;6.30;;
37983;SDS011;64625;50.882;4.376;2022-11-24T02:40:22;37.50;;;7.53;;
37983;SDS011;64625;50.882;4.376;2022-11-24T02:42:50;41.80;;;7.22;;
37983;SDS011;64625;50.882;4.376;2022-11-24T02:45:21;50.80;;;10.07;;
37983;SDS011;64625;50.882;4.376;2022-11-24T02:47:48;33.45;;;4.63;;
37983;SDS011;64625;50.882;4.376;2022-11-24T02:50:14;35.58;;;6.00;;
37983;SDS011;64625;50.882;4.376;2022-11-24T02:52:40;31.23;;;5.22;;
37983;SDS011;64625;50.882;4.376;2022-11-24T02:55:06;31.60;;;7.22;;
37983;SDS011;64625;50.882;4.376;2022-11-24T02:57:32;33.53;;;5.22;;
37983;SDS011;64625;50.882;4.376;2022-11-24T02:59:57;41.22;;;7.05;;
37983;SDS011;64625;50.882;4.376;2022-11-24T03:02:23;41.60;;;5.93;;
37983;SDS011;64625;50.882;4.376;2022-11-24T03:04:49;41.63;;;6.03;;
37983;SDS011;64625;50.882;4.376;2022-11-24T03:07:15;33.78;;;5.63;;
37983;SDS011;64625;50.882;4.376;2022-11-24T03:09:40;39.05;;;5.57;;
37983;SDS011;64625;50.882;4.376;2022-11-24T03:12:06;32.83;;;5.47;;
37983;SDS011;64625;50.882;4.376;2022-11-24T03:14:32;36.03;;;7.95;;
37983;SDS011;64625;50.882;4.376;2022-11-24T03:16:58;33.10;;;8.60;;
37983;SDS011;64625;50.882;4.376;2022-11-24T03:19:23;42.40;;;6.68;;
37983;SDS011;64625;50.882;4.376;2022-11-24T03:21:49;32.67;;;6.15;;
37983;SDS011;64625;50.882;4.376;2022-11-24T03:24:15;40.20;;;7.40;;
37983;SDS011;64625;50.882;4.376;2022-11-24T03:26:40;33.83;;;6.72;;
37983;SDS011;64625;50.882;4.376;2022-11-24T03:29:07;35.33;;;4.53;;
37983;SDS011;64625;50.882;4.376;2022-11-24T03:31:33;41.85;;;6.07;;
37983;SDS011;64625;50.882;4.376;2022-11-24T03:33:58;25.60;;;4.90;;
37983;SDS011;64625;50.882;4.376;2022-11-24T03:36:24;33.53;;;6.70;;
37983;SDS011;64625;50.882;4.376;2022-11-24T03:38:50;29.20;;;4.43;;
37983;SDS011;64625;50.882;4.376;2022-11-24T03:41:16;31.67;;;6.55;;
37983;SDS011;64625;50.882;4.376;2022-11-24T03:43:44;29.48;;;3.78;;
37983;SDS011;64625;50.882;4.376;2022-11-24T03:46:10;21.42;;;3.75;;
37983;SDS011;64625;50.882;4.376;2022-11-24T03:48:36;31.00;;;5.18;;
37983;SDS011;64625;50.882;4.376;2022-11-24T03:51:03;20.23;;;3.67;;
37983;SDS011;64625;50.882;4.376;2022-11-24T03:53:29;32.88;;;5.47;;
37983;SDS011;64625;50.882;4.376;2022-11-24T03:55:56;15.88;;;2.55;;
37983;SDS011;64625;50.882;4.376;2022-11-24T03:58:22;23.95;;;5.32;;
37983;SDS011;64625;50.882;4.376;2022-11-24T04:00:49;15.88;;;2.28;;
37983;SDS011;64625;50.882;4.376;2022-11-24T04:03:17;12.55;;;2.65;;
37983;SDS011;64625;50.882;4.376;2022-11-24T04:05:43;11.38;;;1.98;;
37983;SDS011;64625;50.882;4.376;2022-11-24T04:08:09;10.30;;;1.60;;
37983;SDS011;64625;50.882;4.376;2022-11-24T04:10:36;7.70;;;2.00;;
37983;SDS011;64625;50.882;4.376;2022-11-24T04:13:03;15.70;;;2.63;;
37983;SDS011;64625;50.882;4.376;2022-11-24T04:15:36;12.57;;;2.92;;
37983;SDS011;64625;50.882;4.376;2022-11-24T04:18:04;8.30;;;2.88;;
37983;SDS011;64625;50.882;4.376;2022-11-24T04:20:30;15.85;;;2.78;;
37983;SDS011;64625;50.882;4.376;2022-11-24T04:22:57;22.15;;;2.75;;
37983;SDS011;64625;50.882;4.376;2022-11-24T04:25:25;12.60;;;2.55;;
37983;SDS011;64625;50.882;4.376;2022-11-24T04:27:52;10.55;;;2.30;;
37983;SDS011;64625;50.882;4.376;2022-11-24T04:30:18;6.95;;;2.20;;
37983;SDS011;64625;50.882;4.376;2022-11-24T04:32:45;7.07;;;1.63;;
37983;SDS011;64625;50.882;4.376;2022-11-24T04:35:11;9.65;;;2.05;;
37983;SDS011;64625;50.882;4.376;2022-11-24T04:37:37;6.22;;;1.30;;
37983;SDS011;64625;50.882;4.376;2022-11-24T04:40:04;9.07;;;1.92;;
37983;SDS011;64625;50.882;4.376;2022-11-24T04:42:31;9.35;;;1.63;;
37983;SDS011;64625;50.882;4.376;2022-11-24T04:44:57;7.60;;;1.35;;
37983;SDS011;64625;50.882;4.376;2022-11-24T04:47:24;10.73;;;1.42;;
37983;SDS011;64625;50.882;4.376;2022-11-24T04:49:51;11.18;;;2.05;;
37983;SDS011;64625;50.882;4.376;2022-11-24T04:52:18;7.00;;;1.42;;
37983;SDS011;64625;50.882;4.376;2022-11-24T04:54:45;4.82;;;1.65;;
37983;SDS011;64625;50.882;4.376;2022-11-24T04:57:23;6.90;;;1.80;;
37983;SDS011;64625;50.882;4.376;2022-11-24T04:59:50;14.85;;;3.83;;
37983;SDS011;64625;50.882;4.376;2022-11-24T05:02:16;6.65;;;1.95;;
37983;SDS011;64625;50.882;4.376;2022-11-24T05:04:43;5.55;;;2.03;;
37983;SDS011;64625;50.882;4.376;2022-11-24T05:07:12;5.53;;;1.30;;
37983;SDS011;64625;50.882;4.376;2022-11-24T05:09:39;4.80;;;1.42;;
37983;SDS011;64625;50.882;4.376;2022-11-24T05:12:23;10.95;;;2.72;;
37983;SDS011;64625;50.882;4.376;2022-11-24T05:14:50;7.18;;;1.50;;
37983;SDS011;64625;50.882;4.376;2022-11-24T05:17:15;7.30;;;2.58;;
37983;SDS011;64625;50.882;4.376;2022-11-24T05:19:41;8.65;;;1.88;;
37983;SDS011;64625;50.882;4.376;2022-11-24T05:22:07;14.60;;;2.17;;
37983;SDS011;64625;50.882;4.376;2022-11-24T05:24:33;12.60;;;1.80;;
37983;SDS011;64625;50.882;4.376;2022-11-24T05:26:59;4.57;;;1.92;;
37983;SDS011;64625;50.882;4.376;2022-11-24T05:29:24;9.85;;;1.92;;
37983;SDS011;64625;50.882;4.376;2022-11-24T05:31:53;6.63;;;1.50;;
37983;SDS011;64625;50.882;4.376;2022-11-24T05:34:19;10.57;;;1.58;;
37983;SDS011;64625;50.882;4.376;2022-11-24T05:36:44;5.80;;;1.55;;
37983;SDS011;64625;50.882;4.376;2022-11-24T05:39:36;13.25;;;1.70;;
37983;SDS011;64625;50.882;4.376;2022-11-24T05:42:02;7.20;;;1.40;;
37983;SDS011;64625;50.882;4.376;2022-11-24T05:44:49;6.13;;;1.17;;
37983;SDS011;64625;50.882;4.376;2022-11-24T05:47:15;5.93;;;1.67;;
37983;SDS011;64625;50.882;4.376;2022-11-24T05:49:41;9.45;;;2.47;;
37983;SDS011;64625;50.882;4.376;2022-11-24T05:52:07;11.15;;;2.47;;
37983;SDS011;64625;50.882;4.376;2022-11-24T05:54:33;9.98;;;2.70;;
37983;SDS011;64625;50.882;4.376;2022-11-24T05:56:59;21.20;;;2.58;;
37983;SDS011;64625;50.882;4.376;2022-11-24T05:59:25;16.50;;;2.30;;
37983;SDS011;64625;50.882;4.376;2022-11-24T06:01:51;10.05;;;2.30;;
37983;SDS011;64625;50.882;4.376;2022-11-24T06:04:16;19.45;;;2.42;;
37983;SDS011;64625;50.882;4.376;2022-11-24T06:06:45;16.35;;;3.08;;
37983;SDS011;64625;50.882;4.376;2022-11-24T06:09:11;19.02;;;3.50;;
37983;SDS011;64625;50.882;4.376;2022-11-24T06:11:37;14.40;;;2.97;;
37983;SDS011;64625;50.882;4.376;2022-11-24T06:14:03;8.50;;;2.45;;
37983;SDS011;64625;50.882;4.376;2022-11-24T06:16:29;13.95;;;2.97;;
37983;SDS011;64625;50.882;4.376;2022-11-24T06:18:54;17.92;;;4.00;;
37983;SDS011;64625;50.882;4.376;2022-11-24T06:21:20;18.83;;;3.38;;
37983;SDS011;64625;50.882;4.376;2022-11-24T06:23:46;13.82;;;2.65;;
37983;SDS011;64625;50.882;4.376;2022-11-24T06:26:12;16.05;;;3.13;;
37983;SDS011;64625;50.882;4.376;2022-11-24T06:28:38;25.85;;;3.88;;
37983;SDS011;64625;50.882;4.376;2022-11-24T06:31:04;17.40;;;3.72;;
37983;SDS011;64625;50.882;4.376;2022-11-24T06:33:34;14.15;;;2.88;;
37983;SDS011;64625;50.882;4.376;2022-11-24T06:36:02;29.30;;;3.92;;
37983;SDS011;64625;50.882;4.376;2022-11-24T06:38:29;20.92;;;3.63;;
37983;SDS011;64625;50.882;4.376;2022-11-24T06:40:59;32.72;;;4.07;;
37983;SDS011;64625;50.882;4.376;2022-11-24T06:43:30;22.27;;;4.90;;
37983;SDS011;64625;50.882;4.376;2022-11-24T06:45:56;21.70;;;3.70;;
37983;SDS011;64625;50.882;4.376;2022-11-24T06:48:23;27.45;;;4.90;;
37983;SDS011;64625;50.882;4.376;2022-11-24T06:50:50;20.90;;;5.20;;
37983;SDS011;64625;50.882;4.376;2022-11-24T06:53:16;26.48;;;6.00;;
37983;SDS011;64625;50.882;4.376;2022-11-24T06:55:44;34.03;;;4.13;;
37983;SDS011;64625;50.882;4.376;2022-11-24T06:58:11;14.05;;;3.38;;
37983;SDS011;64625;50.882;4.376;2022-11-24T07:00:37;23.60;;;4.03;;
37983;SDS011;64625;50.882;4.376;2022-11-24T07:03:03;21.17;;;3.90;;
37983;SDS011;64625;50.882;4.376;2022-11-24T07:05:29;12.88;;;3.33;;
37983;SDS011;64625;50.882;4.376;2022-11-24T07:07:55;23.42;;;3.35;;
37983;SDS011;64625;50.882;4.376;2022-11-24T07:10:22;16.40;;;2.92;;
37983;SDS011;64625;50.882;4.376;2022-11-24T07:12:48;19.45;;;3.83;;
37983;SDS011;64625;50.882;4.376;2022-11-24T07:15:14;24.60;;;4.32;;
37983;SDS011;64625;50.882;4.376;2022-11-24T07:17:40;19.13;;;3.47;;
37983;SDS011;64625;50.882;4.376;2022-11-24T07:20:07;21.45;;;3.95;;
37983;SDS011;64625;50.882;4.376;2022-11-24T07:22:34;18.42;;;3.03;;
37983;SDS011;64625;50.882;4.376;2022-11-24T07:25:01;20.35;;;3.05;;
37983;SDS011;64625;50.882;4.376;2022-11-24T07:27:32;5.82;;;2.55;;
37983;SDS011;64625;50.882;4.376;2022-11-24T07:29:57;12.98;;;2.65;;
37983;SDS011;64625;50.882;4.376;2022-11-24T07:32:23;21.60;;;4.40;;
37983;SDS011;64625;50.882;4.376;2022-11-24T07:37:56;23.77;;;4.85;;
37983;SDS011;64625;50.882;4.376;2022-11-24T07:40:23;10.50;;;2.30;;
37983;SDS011;64625;50.882;4.376;2022-11-24T07:42:50;16.95;;;3.35;;
37983;SDS011;64625;50.882;4.376;2022-11-24T07:45:16;17.08;;;3.03;;
37983;SDS011;64625;50.882;4.376;2022-11-24T07:47:42;22.10;;;3.55;;
37983;SDS011;64625;50.882;4.376;2022-11-24T07:50:09;14.23;;;3.17;;
37983;SDS011;64625;50.882;4.376;2022-11-24T07:52:36;13.85;;;3.10;;
37983;SDS011;64625;50.882;4.376;2022-11-24T07:55:02;11.68;;;3.72;;
37983;SDS011;64625;50.882;4.376;2022-11-24T07:57:29;23.13;;;4.75;;
37983;SDS011;64625;50.882;4.376;2022-11-24T07:59:55;16.85;;;3.60;;
37983;SDS011;64625;50.882;4.376;2022-11-24T08:02:21;25.52;;;3.95;;
37983;SDS011;64625;50.882;4.376;2022-11-24T08:04:47;19.67;;;3.50;;
37983;SDS011;64625;50.882;4.376;2022-11-24T08:07:13;20.30;;;2.88;;
37983;SDS011;64625;50.882;4.376;2022-11-24T08:09:38;16.27;;;3.25;;
37983;SDS011;64625;50.882;4.376;2022-11-24T08:12:04;15.80;;;3.47;;
37983;SDS011;64625;50.882;4.376;2022-11-24T08:14:30;17.67;;;3.00;;
37983;SDS011;64625;50.882;4.376;2022-11-24T08:16:56;25.38;;;3.97;;
37983;SDS011;64625;50.882;4.376;2022-11-24T08:19:23;17.75;;;4.53;;
37983;SDS011;64625;50.882;4.376;2022-11-24T08:21:48;27.67;;;12.48;;
37983;SDS011;64625;50.882;4.376;2022-11-24T08:24:15;18.45;;;3.90;;
37983;SDS011;64625;50.882;4.376;2022-11-24T08:26:41;16.75;;;2.83;;
37983;SDS011;64625;50.882;4.376;2022-11-24T08:29:07;27.15;;;4.55;;
37983;SDS011;64625;50.882;4.376;2022-11-24T08:31:34;15.27;;;3.00;;
37983;SDS011;64625;50.882;4.376;2022-11-24T08:34:02;18.23;;;3.15;;
37983;SDS011;64625;50.882;4.376;2022-11-24T08:36:29;26.95;;;4.97;;
37983;SDS011;64625;50.882;4.376;2022-11-24T08:38:57;18.25;;;4.05;;
37983;SDS011;64625;50.882;4.376;2022-11-24T08:41:24;20.55;;;3.35;;
37983;SDS011;64625;50.882;4.376;2022-11-24T08:43:51;21.48;;;3.88;;
37983;SDS011;64625;50.882;4.376;2022-11-24T08:46:18;19.13;;;3.35;;
37983;SDS011;64625;50.882;4.376;2022-11-24T08:48:47;15.30;;;3.53;;
37983;SDS011;64625;50.882;4.376;2022-11-24T08:51:15;13.43;;;2.28;;
37983;SDS011;64625;50.882;4.376;2022-11-24T08:53:43;20.52;;;3.17;;
37983;SDS011;64625;50.882;4.376;2022-11-24T08:56:09;20.88;;;3.55;;
37983;SDS011;64625;50.882;4.376;2022-11-24T08:58:37;29.20;;;3.22;;
37983;SDS011;64625;50.882;4.376;2022-11-24T09:01:10;25.88;;;3.25;;
37983;SDS011;64625;50.882;4.376;2022-11-24T09:03:37;22.02;;;7.07;;
37983;SDS011;64625;50.882;4.376;2022-11-24T09:06:04;11.88;;;2.80;;
37983;SDS011;64625;50.882;4.376;2022-11-24T09:08:31;21.08;;;4.50;;
37983;SDS011;64625;50.882;4.376;2022-11-24T09:11:07;31.20;;;3.05;;
37983;SDS011;64625;50.882;4.376;2022-11-24T09:13:35;26.85;;;4.63;;
37983;SDS011;64625;50.882;4.376;2022-11-24T09:16:05;21.20;;;4.35;;
37983;SDS011;64625;50.882;4.376;2022-11-24T09:18:33;23.02;;;3.92;;
37983;SDS011;64625;50.882;4.376;2022-11-24T09:21:16;21.23;;;6.82;;
37983;SDS011;64625;50.882;4.376;2022-11-24T09:23:44;29.40;;;5.72;;
37983;SDS011;64625;50.882;4.376;2022-11-24T09:26:16;18.40;;;3.90;;
37983;SDS011;64625;50.882;4.376;2022-11-24T09:28:52;19.60;;;3.15;;
37983;SDS011;64625;50.882;4.376;2022-11-24T09:31:19;22.17;;;4.10;;
37983;SDS011;64625;50.882;4.376;2022-11-24T09:33:50;29.90;;;5.93;;
37983;SDS011;64625;50.882;4.376;2022-11-24T09:36:16;13.13;;;4.78;;
37983;SDS011;64625;50.882;4.376;2022-11-24T09:38:43;13.50;;;3.97;;
37983;SDS011;64625;50.882;4.376;2022-11-24T09:49:05;21.27;;;3.40;;
37983;SDS011;64625;50.882;4.376;2022-11-24T09:51:35;25.47;;;4.57;;
37983;SDS011;64625;50.882;4.376;2022-11-24T09:54:08;15.07;;;3.55;;
37983;SDS011;64625;50.882;4.376;2022-11-24T09:56:40;29.60;;;5.10;;
37983;SDS011;64625;50.882;4.376;2022-11-24T09:59:15;25.08;;;4.30;;
37983;SDS011;64625;50.882;4.376;2022-11-24T10:01:45;15.93;;;2.25;;
37983;SDS011;64625;50.882;4.376;2022-11-24T10:23:15;23.75;;;4.50;;
37983;SDS011;64625;50.882;4.376;2022-11-24T10:28:52;43.42;;;12.27;;
37983;SDS011;64625;50.882;4.376;2022-11-24T10:34:15;18.80;;;4.38;;
37983;SDS011;64625;50.882;4.376;2022-11-24T10:36:43;33.03;;;4.40;;
37983;SDS011;64625;50.882;4.376;2022-11-24T10:42:17;25.42;;;4.18;;
37983;SDS011;64625;50.882;4.376;2022-11-24T10:45:05;22.90;;;4.32;;
37983;SDS011;64625;50.882;4.376;2022-11-24T10:47:36;32.40;;;5.80;;
37983;SDS011;64625;50.882;4.376;2022-11-24T10:55:42;25.42;;;5.45;;
37983;SDS011;64625;50.882;4.376;2022-11-24T10:58:19;30.30;;;6.88;;
37983;SDS011;64625;50.882;4.376;2022-11-24T11:00:51;38.33;;;6.65;;
37983;SDS011;64625;50.882;4.376;2022-11-24T11:03:24;27.55;;;9.10;;
37983;SDS011;64625;50.882;4.376;2022-11-24T11:08:45;14.90;;;4.20;;
37983;SDS011;64625;50.882;4.376;2022-11-24T11:11:12;17.27;;;3.92;;
37983;SDS011;64625;50.882;4.376;2022-11-24T11:13:55;28.50;;;4.40;;
37983;SDS011;64625;50.882;4.376;2022-11-24T11:16:27;34.58;;;4.80;;
37983;SDS011;64625;50.882;4.376;2022-11-24T11:18:59;21.63;;;3.80;;
37983;SDS011;64625;50.882;4.376;2022-11-24T11:21:31;17.80;;;5.40;;
37983;SDS011;64625;50.882;4.376;2022-11-24T11:24:12;18.17;;;4.38;;
37983;SDS011;64625;50.882;4.376;2022-11-24T11:26:40;18.38;;;6.65;;
37983;SDS011;64625;50.882;4.376;2022-11-24T11:31:35;13.48;;;4.63;;
37983;SDS011;64625;50.882;4.376;2022-11-24T11:39:28;19.63;;;3.53;;
37983;SDS011;64625;50.882;4.376;2022-11-24T11:44:54;15.70;;;5.28;;
37983;SDS011;64625;50.882;4.376;2022-11-24T11:47:32;39.15;;;7.00;;
37983;SDS011;64625;50.882;4.376;2022-11-24T11:50:16;41.17;;;7.00;;
37983;SDS011;64625;50.882;4.376;2022-11-24T12:05:59;38.65;;;6.07;;
37983;SDS011;64625;50.882;4.376;2022-11-24T12:08:46;18.48;;;5.15;;
37983;SDS011;64625;50.882;4.376;2022-11-24T12:14:08;21.83;;;4.50;;
37983;SDS011;64625;50.882;4.376;2022-11-24T12:24:56;24.90;;;4.15;;
37983;SDS011;64625;50.882;4.376;2022-11-24T12:30:48;14.43;;;4.28;;
37983;SDS011;64625;50.882;4.376;2022-11-24T12:43:49;25.00;;;5.03;;
37983;SDS011;64625;50.882;4.376;2022-11-24T12:46:22;25.77;;;4.82;;
37983;SDS011;64625;50.882;4.376;2022-11-24T12:52:04;38.67;;;8.55;;
37983;SDS011;64625;50.882;4.376;2022-11-24T12:54:41;22.98;;;4.80;;
37983;SDS011;64625;50.882;4.376;2022-11-24T12:57:27;18.35;;;4.10;;
37983;SDS011;64625;50.882;4.376;2022-11-24T13:00:00;14.30;;;3.78;;
37983;SDS011;64625;50.882;4.376;2022-11-24T13:07:57;19.98;;;5.90;;
37983;SDS011;64625;50.882;4.376;2022-11-24T13:10:28;21.07;;;3.80;;
37983;SDS011;64625;50.882;4.376;2022-11-24T13:13:03;12.75;;;3.40;;
37983;SDS011;64625;50.882;4.376;2022-11-24T13:24:40;22.67;;;4.55;;
37983;SDS011;64625;50.882;4.376;2022-11-24T13:29:28;24.23;;;5.38;;
37983;SDS011;64625;50.882;4.376;2022-11-24T13:42:27;32.85;;;5.28;;
37983;SDS011;64625;50.882;4.376;2022-11-24T13:44:54;25.60;;;4.25;;
37983;SDS011;64625;50.882;4.376;2022-11-24T13:47:42;19.35;;;4.30;;
37983;SDS011;64625;50.882;4.376;2022-11-24T13:52:49;23.63;;;4.15;;
37983;SDS011;64625;50.882;4.376;2022-11-24T13:55:21;23.17;;;3.88;;
37983;SDS011;64625;50.882;4.376;2022-11-24T13:57:52;19.17;;;5.55;;
37983;SDS011;64625;50.882;4.376;2022-11-24T14:02:48;25.15;;;4.43;;
37983;SDS011;64625;50.882;4.376;2022-11-24T14:05:17;29.98;;;4.45;;
37983;SDS011;64625;50.882;4.376;2022-11-24T14:07:47;21.20;;;3.95;;
37983;SDS011;64625;50.882;4.376;2022-11-24T14:10:15;27.75;;;5.68;;
37983;SDS011;64625;50.882;4.376;2022-11-24T14:15:58;26.65;;;5.60;;
37983;SDS011;64625;50.882;4.376;2022-11-24T14:18:25;34.83;;;5.43;;
37983;SDS011;64625;50.882;4.376;2022-11-24T14:20:54;30.83;;;4.47;;
37983;SDS011;64625;50.882;4.376;2022-11-24T14:23:20;30.25;;;5.47;;
37983;SDS011;64625;50.882;4.376;2022-11-24T14:25:47;20.17;;;4.55;;
37983;SDS011;64625;50.882;4.376;2022-11-24T14:28:18;18.58;;;4.32;;
37983;SDS011;64625;50.882;4.376;2022-11-24T14:30:51;19.45;;;4.28;;
37983;SDS011;64625;50.882;4.376;2022-11-24T14:33:42;26.80;;;4.25;;
37983;SDS011;64625;50.882;4.376;2022-11-24T14:36:12;22.90;;;4.25;;
37983;SDS011;64625;50.882;4.376;2022-11-24T14:38:39;28.23;;;5.63;;
37983;SDS011;64625;50.882;4.376;2022-11-24T14:41:13;26.55;;;5.07;;
37983;SDS011;64625;50.882;4.376;2022-11-24T14:44:01;22.77;;;4.68;;
37983;SDS011;64625;50.882;4.376;2022-11-24T14:46:48;32.90;;;6.05;;
37983;SDS011;64625;50.882;4.376;2022-11-24T14:49:17;23.75;;;4.55;;
37983;SDS011;64625;50.882;4.376;2022-11-24T14:51:45;35.47;;;8.35;;
37983;SDS011;64625;50.882;4.376;2022-11-24T14:54:23;32.47;;;7.07;;
37983;SDS011;64625;50.882;4.376;2022-11-24T14:57:03;20.70;;;4.80;;
37983;SDS011;64625;50.882;4.376;2022-11-24T14:59:31;15.07;;;5.15;;
37983;SDS011;64625;50.882;4.376;2022-11-24T15:02:00;41.92;;;6.03;;
37983;SDS011;64625;50.882;4.376;2022-11-24T15:04:27;22.77;;;4.00;;
37983;SDS011;64625;50.882;4.376;2022-11-24T15:09:49;17.13;;;5.07;;
37983;SDS011;64625;50.882;4.376;2022-11-24T15:17:44;29.27;;;5.57;;
37983;SDS011;64625;50.882;4.376;2022-11-24T15:22:45;21.73;;;5.97;;
37983;SDS011;64625;50.882;4.376;2022-11-24T15:25:30;28.38;;;5.22;;
37983;SDS011;64625;50.882;4.376;2022-11-24T15:27:58;21.52;;;4.90;;
37983;SDS011;64625;50.882;4.376;2022-11-24T15:30:25;26.35;;;5.38;;
37983;SDS011;64625;50.882;4.376;2022-11-24T15:32:52;24.35;;;4.10;;
37983;SDS011;64625;50.882;4.376;2022-11-24T15:35:19;25.27;;;5.07;;
37983;SDS011;64625;50.882;4.376;2022-11-24T15:37:47;30.33;;;5.00;;
37983;SDS011;64625;50.882;4.376;2022-11-24T15:40:14;27.08;;;5.32;;
37983;SDS011;64625;50.882;4.376;2022-11-24T15:42:40;23.15;;;5.25;;
37983;SDS011;64625;50.882;4.376;2022-11-24T15:45:08;33.85;;;4.28;;
37983;SDS011;64625;50.882;4.376;2022-11-24T15:47:34;22.65;;;5.50;;
37983;SDS011;64625;50.882;4.376;2022-11-24T15:50:00;25.00;;;5.07;;
37983;SDS011;64625;50.882;4.376;2022-11-24T15:52:26;22.02;;;4.63;;
37983;SDS011;64625;50.882;4.376;2022-11-24T15:54:52;26.40;;;4.93;;
37983;SDS011;64625;50.882;4.376;2022-11-24T15:57:21;25.33;;;5.50;;
37983;SDS011;64625;50.882;4.376;2022-11-24T15:59:47;30.15;;;4.22;;
37983;SDS011;64625;50.882;4.376;2022-11-24T16:02:13;23.33;;;5.05;;
37983;SDS011;64625;50.882;4.376;2022-11-24T16:04:39;23.35;;;5.75;;
37983;SDS011;64625;50.882;4.376;2022-11-24T16:07:14;23.05;;;4.65;;
37983;SDS011;64625;50.882;4.376;2022-11-24T16:09:41;29.67;;;6.05;;
37983;SDS011;64625;50.882;4.376;2022-11-24T16:12:07;38.47;;;6.07;;
37983;SDS011;64625;50.882;4.376;2022-11-24T16:14:34;23.63;;;5.00;;
37983;SDS011;64625;50.882;4.376;2022-11-24T16:17:01;19.95;;;5.35;;
37983;SDS011;64625;50.882;4.376;2022-11-24T16:19:27;25.30;;;6.10;;
37983;SDS011;64625;50.882;4.376;2022-11-24T16:21:53;23.40;;;4.22;;
37983;SDS011;64625;50.882;4.376;2022-11-24T16:24:19;31.20;;;5.78;;
37983;SDS011;64625;50.882;4.376;2022-11-24T16:26:44;23.73;;;3.95;;
37983;SDS011;64625;50.882;4.376;2022-11-24T16:29:10;33.20;;;4.80;;
37983;SDS011;64625;50.882;4.376;2022-11-24T16:31:36;17.80;;;6.20;;
37983;SDS011;64625;50.882;4.376;2022-11-24T16:34:02;29.23;;;7.30;;
37983;SDS011;64625;50.882;4.376;2022-11-24T16:36:28;13.10;;;3.75;;
37983;SDS011;64625;50.882;4.376;2022-11-24T16:38:54;20.48;;;5.15;;
37983;SDS011;64625;50.882;4.376;2022-11-24T16:41:19;24.42;;;5.57;;
37983;SDS011;64625;50.882;4.376;2022-11-24T16:43:46;25.27;;;8.25;;
37983;SDS011;64625;50.882;4.376;2022-11-24T16:48:49;34.03;;;6.97;;
37983;SDS011;64625;50.882;4.376;2022-11-24T16:51:16;29.08;;;8.18;;
37983;SDS011;64625;50.882;4.376;2022-11-24T16:53:43;32.35;;;6.75;;
37983;SDS011;64625;50.882;4.376;2022-11-24T16:56:10;27.08;;;6.15;;
37983;SDS011;64625;50.882;4.376;2022-11-24T16:58:37;21.55;;;5.40;;
37983;SDS011;64625;50.882;4.376;2022-11-24T17:01:04;32.90;;;6.45;;
37983;SDS011;64625;50.882;4.376;2022-11-24T17:03:32;27.50;;;5.53;;
37983;SDS011;64625;50.882;4.376;2022-11-24T17:06:01;29.30;;;5.13;;
37983;SDS011;64625;50.882;4.376;2022-11-24T17:08:31;18.73;;;4.78;;
37983;SDS011;64625;50.882;4.376;2022-11-24T17:11:05;39.08;;;6.50;;
37983;SDS011;64625;50.882;4.376;2022-11-24T17:13:37;19.80;;;5.20;;
37983;SDS011;64625;50.882;4.376;2022-11-24T17:16:03;24.80;;;5.63;;
37983;SDS011;64625;50.882;4.376;2022-11-24T17:18:30;31.13;;;6.68;;
37983;SDS011;64625;50.882;4.376;2022-11-24T17:20:57;25.88;;;5.97;;
37983;SDS011;64625;50.882;4.376;2022-11-24T17:23:25;28.17;;;4.93;;